Au Sable Forks, NY

2:32 AM EST on February 27, 2015 (GMT -0500)
AuSable River | Change Station
CLOSE
Current Station
Personal Weather Station
Location: Wilmington, NY
Elevation: 1014 ft
Nearby Weather Stations

Elev 1014 ft 44.40 °N, 73.80 °W | Updated 11 minutes ago

Mostly Cloudy
Mostly Cloudy
3.9 °F
Feels Like 4 °F
N
2.0
Wind Variable Wind from SW

Today
High -- | Low -- °F
--% Chance of Precip.
Yesterday
High -- | Low -- °F
Precip. -- in
6:35 AM 5:39 PM
Waxing Gibbous, 66% visible
Pressure 30.25 in
Visibility 10.0 miles
Clouds Overcast 11000 ft
Windchill 4 °F
Dew Point -8 °F
Humidity 59%
Rainfall 0.00 in
Snow Depth Not available.
UV 0 out of 12
Pollen .30 out of 12
Air Quality Not available.
Flu Activity Not available.
METAR KPBG 270653Z AUTO 25004KT 10SM OVC110 M18/M22 A3023 RMK AO2 SLP243 T11831222

More Conditions Fewer Conditions

Pressure 30.25 in
Visibility 10.0 miles
Clouds Overcast 11000 ft
Windchill 4 °F
Dew Point -8 °F
Humidity 59%
Rainfall 0.00 in
Snow Depth Not available.
UV 0 out of 12
Pollen .30 out of 12
Air Quality Not available.
Flu Activity Not available.
METAR KPBG 270653Z AUTO 25004KT 10SM OVC110 M18/M22 A3023 RMK AO2 SLP243 T11831222

More Conditions Fewer Conditions

10-Day Weather Forecast

Almanac

Astronomy

Feb. 27, 2015 Rise Set
Actual Time
Civil Twilight
Nautical Twilight
Astronomical Twilight
Moon
Length of Visible Light
Length of Day
Tomorrow will be .
, % of the Moon is Illuminated

Today's Extremes

State Highs State Lows

Community

WunderPhotos

Upload Photos

1,800,646 photos uploaded!

WunderBlogs® & News

Nearby

Air Quality

  Air Quality AQ Index Pollutant
Not available.

Snow Depth

Station Depth Elevation

Earthquake Activity

City Distance Mag. Time & Date
Minimum magnitude displayed is 2.5.

Coastal Water Temperatures

Place Temperature

Nearby Weather Stations